Time;durP1;ratioP1;P1;durP2;ratioP2;P2;SDS_P1;SDS_P2;PMS_P1;PMS_P2;Temp;Humidity;BMP_temperature;BMP_pressure;BME280_temperature;BME280_humidity;BME280_pressure;Samples;Min_cycle;Max_cycle;Signal;HPM_P1;HPM_P2
2021/01/18 05:00:47;;;;;;;36.70;18.50;;;1.30;99.90;;;;;;5794389;23;20316;-73
2021/01/18 05:03:15;;;;;;;43.35;18.13;;;1.30;99.90;;;;;;4958521;28;20208;-71
2021/01/18 05:06:23;;;;;;;39.88;18.27;;;1.30;99.90;;;;;;4954031;28;20296;-70
2021/01/18 05:09:21;;;;;;;41.95;19.60;;;1.30;99.90;;;;;;4960086;28;20213;-71
2021/01/18 05:11:48;;;;;;;37.55;16.05;;;1.40;99.90;;;;;;4939147;28;20235;-72
2021/01/18 05:14:15;;;;;;;29.63;16.23;;;1.40;99.90;;;;;;4941916;29;20229;-72
2021/01/18 05:16:46;;;;;;;28.92;15.27;;;1.40;99.90;;;;;;4938145;28;20654;-72
2021/01/18 05:19:13;;;;;;;32.92;16.33;;;1.40;99.90;;;;;;4942525;29;20206;-72
2021/01/18 05:21:40;;;;;;;29.65;15.05;;;1.50;99.90;;;;;;4951705;28;20225;-72
2021/01/18 05:24:07;;;;;;;31.73;15.82;;;1.50;99.90;;;;;;4938110;28;20618;-72
2021/01/18 05:26:33;;;;;;;29.63;14.63;;;1.50;99.90;;;;;;4948034;28;20201;-72
2021/01/18 05:29:00;;;;;;;29.13;15.23;;;1.50;99.90;;;;;;4942299;28;20667;-71
2021/01/18 05:31:34;;;;;;;28.67;14.02;;;1.60;99.90;;;;;;4948856;29;20644;-72
2021/01/18 05:34:03;;;;;;;36.53;14.48;;;1.60;99.90;;;;;;4955839;29;20246;-71
2021/01/18 05:36:37;;;;;;;28.70;13.65;;;1.60;99.90;;;;;;4946070;28;20216;-73
2021/01/18 05:39:15;;;;;;;26.50;12.13;;;1.60;99.90;;;;;;4946590;29;20218;-74
2021/01/18 05:41:42;;;;;;;28.85;13.80;;;1.70;99.90;;;;;;4949458;29;20572;-74
2021/01/18 05:44:09;;;;;;;25.20;11.32;;;1.70;99.90;;;;;;4942893;28;20253;-74
2021/01/18 05:46:37;;;;;;;29.83;13.23;;;1.70;99.90;;;;;;4947847;29;20206;-74
2021/01/18 05:49:09;;;;;;;25.80;12.75;;;1.70;99.90;;;;;;4957292;28;20577;-74
2021/01/18 05:51:36;;;;;;;28.38;12.07;;;1.70;99.90;;;;;;4945823;28;20237;-73
2021/01/18 05:54:04;;;;;;;27.77;12.55;;;1.80;99.90;;;;;;4938998;29;20236;-73
2021/01/18 05:56:41;;;;;;;32.55;13.95;;;1.80;99.90;;;;;;4942908;29;20213;-74
2021/01/18 05:59:20;;;;;;;27.23;13.63;;;1.80;99.90;;;;;;4942620;29;20269;-72
2021/01/18 06:01:48;;;;;;;28.50;13.15;;;1.80;99.90;;;;;;4937245;29;20252;-72
2021/01/18 06:04:16;;;;;;;28.80;12.48;;;1.80;99.90;;;;;;4948542;29;20221;-73
2021/01/18 06:06:44;;;;;;;24.30;11.60;;;1.80;99.90;;;;;;4937491;29;20213;-72
2021/01/18 06:09:11;;;;;;;28.48;12.52;;;1.80;99.90;;;;;;4944706;28;20554;-73
2021/01/18 06:11:37;;;;;;;30.02;13.02;;;1.80;99.90;;;;;;4955442;28;20717;-72
2021/01/18 06:14:05;;;;;;;26.40;12.15;;;1.90;99.90;;;;;;4943627;28;20225;-73
2021/01/18 06:16:32;;;;;;;30.50;13.00;;;1.90;99.90;;;;;;4955039;29;20209;-72
2021/01/18 06:19:01;;;;;;;29.02;12.52;;;1.90;99.90;;;;;;4943130;28;20260;-72
2021/01/18 06:21:39;;;;;;;28.98;13.98;;;1.90;99.90;;;;;;4956404;28;20233;-73
2021/01/18 06:24:25;;;;;;;32.03;12.25;;;1.90;99.90;;;;;;4942452;28;20264;-73
2021/01/18 06:26:51;;;;;;;28.33;12.43;;;1.90;99.90;;;;;;4954821;28;20213;-73
2021/01/18 06:29:37;;;;;;;31.20;13.10;;;1.90;99.90;;;;;;4943484;28;20670;-73
2021/01/18 06:32:06;;;;;;;34.90;13.27;;;2.00;99.90;;;;;;4936059;29;20292;-73
2021/01/18 06:34:32;;;;;;;28.08;13.73;;;2.00;99.90;;;;;;4937058;29;20269;-73
2021/01/18 06:36:59;;;;;;;30.25;14.52;;;2.00;99.90;;;;;;4936590;29;20216;-73
2021/01/18 06:39:27;;;;;;;31.88;15.82;;;2.00;99.90;;;;;;4937763;29;20209;-74
2021/01/18 06:42:01;;;;;;;32.88;14.43;;;2.00;99.90;;;;;;4936677;29;20225;-74
2021/01/18 06:44:45;;;;;;;31.60;13.77;;;2.00;99.90;;;;;;4937032;29;20198;-72
2021/01/18 06:47:29;;;;;;;36.67;14.50;;;2.00;99.90;;;;;;4941985;29;20288;-72
2021/01/18 06:49:57;;;;;;;34.67;16.15;;;2.10;99.90;;;;;;4950609;28;20205;-72
2021/01/18 06:52:27;;;;;;;42.53;16.77;;;2.10;99.90;;;;;;4945780;29;20222;-73
2021/01/18 06:55:03;;;;;;;37.42;14.95;;;2.10;99.90;;;;;;4950955;28;20230;-73
2021/01/18 06:57:45;;;;;;;33.13;15.35;;;2.10;99.90;;;;;;4938315;29;20198;-72
2021/01/18 07:00:13;;;;;;;32.72;15.13;;;2.10;99.90;;;;;;4939432;29;20225;-72
2021/01/18 07:02:52;;;;;;;40.63;17.27;;;2.10;99.90;;;;;;4952244;29;20356;-71
2021/01/18 07:05:35;;;;;;;37.75;14.85;;;2.10;99.90;;;;;;4955107;28;20289;-71
2021/01/18 07:08:16;;;;;;;38.88;14.85;;;2.20;99.90;;;;;;4944697;28;20233;-73
2021/01/18 07:10:46;;;;;;;37.28;14.00;;;2.20;99.90;;;;;;4942884;29;20277;-72
2021/01/18 07:13:12;;;;;;;32.33;13.40;;;2.20;99.90;;;;;;4959479;29;20220;-73
2021/01/18 07:15:40;;;;;;;35.28;14.35;;;2.20;99.90;;;;;;4956325;28;20224;-74
2021/01/18 07:18:09;;;;;;;31.95;13.35;;;2.30;99.90;;;;;;4941646;28;20266;-73
2021/01/18 07:20:39;;;;;;;39.85;13.93;;;2.30;99.90;;;;;;4938489;29;20225;-72
2021/01/18 07:23:34;;;;;;;28.88;12.68;;;2.30;99.90;;;;;;4953728;29;20240;-73
2021/01/18 07:26:32;;;;;;;27.70;13.23;;;2.40;99.90;;;;;;4952318;28;20198;-73
2021/01/18 07:29:04;;;;;;;38.28;15.07;;;2.40;99.90;;;;;;4939801;29;20210;-74
2021/01/18 07:31:31;;;;;;;25.80;12.85;;;2.50;99.90;;;;;;4954775;29;20285;-72
2021/01/18 07:33:58;;;;;;;33.03;13.55;;;2.50;99.90;;;;;;4939177;29;20694;-72
2021/01/18 07:36:28;;;;;;;28.30;14.15;;;2.50;99.90;;;;;;4935332;29;20265;-71
2021/01/18 07:38:55;;;;;;;25.33;12.57;;;2.50;99.90;;;;;;4935939;29;20725;-71
2021/01/18 07:41:30;;;;;;;39.60;14.90;;;2.50;99.90;;;;;;4934723;29;20584;-71
2021/01/18 07:43:56;;;;;;;34.38;16.02;;;2.60;99.90;;;;;;4935198;29;20286;-70
2021/01/18 07:46:38;;;;;;;37.63;14.25;;;2.70;99.90;;;;;;4936341;29;20209;-70
2021/01/18 07:49:44;;;;;;;32.33;14.05;;;2.60;99.90;;;;;;4937388;29;20277;-72
2021/01/18 07:52:31;;;;;;;43.08;14.98;;;2.70;99.90;;;;;;4936573;29;20239;-71
2021/01/18 07:55:00;;;;;;;38.33;15.23;;;2.70;99.90;;;;;;4936612;28;20221;-71
2021/01/18 07:57:39;;;;;;;33.75;15.95;;;2.70;99.90;;;;;;4940432;28;20300;-70
2021/01/18 08:00:33;;;;;;;39.00;15.20;;;2.70;99.90;;;;;;4933626;29;20210;-70
2021/01/18 08:03:27;;;;;;;33.83;14.10;;;2.70;99.90;;;;;;4933013;29;20202;-71
2021/01/18 08:06:15;;;;;;;43.47;13.88;;;2.80;99.90;;;;;;4936631;29;20206;-73
2021/01/18 08:08:42;;;;;;;35.20;14.00;;;2.80;99.90;;;;;;4935551;29;20313;-72
2021/01/18 08:11:19;;;;;;;36.53;15.45;;;2.80;99.90;;;;;;4937882;29;20232;-72
2021/01/18 08:13:51;;;;;;;33.15;14.10;;;2.90;99.90;;;;;;4935937;29;20212;-71
2021/01/18 08:16:19;;;;;;;31.98;15.98;;;2.90;99.90;;;;;;4938892;29;20725;-72
2021/01/18 08:18:54;;;;;;;35.47;14.85;;;2.90;99.90;;;;;;4950814;29;20661;-73
2021/01/18 08:21:42;;;;;;;42.10;19.58;;;2.90;99.90;;;;;;4948573;28;20217;-73
2021/01/18 08:24:10;;;;;;;46.78;20.55;;;3.00;99.90;;;;;;4934618;29;20205;-73
2021/01/18 08:26:57;;;;;;;36.80;15.02;;;3.00;99.90;;;;;;4934071;29;20216;-73
2021/01/18 08:29:52;;;;;;;32.80;17.08;;;3.00;99.90;;;;;;4935760;29;20202;-73
2021/01/18 08:32:38;;;;;;;34.17;15.52;;;3.00;99.90;;;;;;4934613;29;20316;-73
2021/01/18 08:35:20;;;;;;;29.42;13.60;;;3.00;99.90;;;;;;4935339;29;20888;-74
2021/01/18 08:37:52;;;;;;;27.10;13.27;;;3.10;99.90;;;;;;4934969;29;20220;-73
2021/01/18 08:40:19;;;;;;;28.73;14.95;;;3.10;99.90;;;;;;4934698;29;20210;-73
2021/01/18 08:42:54;;;;;;;25.85;12.90;;;3.10;99.90;;;;;;4933911;28;20230;-73
2021/01/18 08:45:23;;;;;;;28.67;20.20;;;3.10;99.90;;;;;;4934787;29;20213;-73
2021/01/18 08:47:54;;;;;;;26.75;13.32;;;3.20;99.90;;;;;;4934245;29;20206;-73
2021/01/18 08:50:23;;;;;;;23.60;11.52;;;3.20;99.90;;;;;;4934738;29;20210;-74
2021/01/18 08:52:50;;;;;;;26.55;11.77;;;3.20;99.90;;;;;;4941575;29;20277;-73
2021/01/18 08:55:44;;;;;;;27.85;11.15;;;3.30;99.90;;;;;;4940487;29;20618;-72
2021/01/18 08:58:10;;;;;;;19.23;10.02;;;3.30;99.90;;;;;;4952473;28;20213;-74
2021/01/18 09:00:45;;;;;;;21.27;11.48;;;3.40;99.90;;;;;;4945042;28;20235;-73
2021/01/18 09:03:16;;;;;;;31.15;12.40;;;3.50;99.90;;;;;;4955241;29;20209;-73
2021/01/18 09:05:42;;;;;;;25.00;10.38;;;3.50;99.90;;;;;;4949934;29;20564;-73
2021/01/18 09:08:08;;;;;;;23.30;11.10;;;3.50;99.90;;;;;;4955966;28;20518;-72
2021/01/18 09:10:35;;;;;;;21.98;9.98;;;3.50;99.90;;;;;;4938034;28;20230;-73
2021/01/18 09:13:03;;;;;;;23.10;10.32;;;3.50;99.90;;;;;;4954582;29;20209;-72
2021/01/18 09:15:30;;;;;;;22.40;10.35;;;3.60;99.90;;;;;;4940469;28;20225;-73
2021/01/18 09:17:57;;;;;;;23.88;9.60;;;3.50;99.90;;;;;;4953462;29;20213;-72
2021/01/18 09:20:23;;;;;;;29.90;10.90;;;3.50;99.90;;;;;;4949275;28;20217;-73
2021/01/18 09:22:50;;;;;;;25.45;11.25;;;3.60;99.90;;;;;;4938334;29;20214;-72
2021/01/18 09:25:17;;;;;;;21.23;11.27;;;3.50;99.90;;;;;;4945560;29;20220;-73
2021/01/18 09:27:43;;;;;;;17.55;10.20;;;3.60;99.90;;;;;;4944851;28;20301;-73
2021/01/18 09:30:14;;;;;;;25.55;10.50;;;3.60;99.90;;;;;;4945088;29;20584;-73
2021/01/18 09:32:40;;;;;;;21.88;10.43;;;3.60;99.90;;;;;;4937921;28;20241;-73
2021/01/18 09:35:10;;;;;;;26.63;11.00;;;3.60;99.90;;;;;;4938306;29;20229;-70
2021/01/18 09:37:40;;;;;;;18.25;10.55;;;3.60;99.90;;;;;;4948154;29;20580;-73
2021/01/18 09:40:07;;;;;;;21.20;9.93;;;3.70;99.90;;;;;;4943576;28;20336;-71
2021/01/18 09:42:35;;;;;;;15.35;9.35;;;3.70;99.90;;;;;;4955950;28;20201;-73
2021/01/18 09:45:01;;;;;;;26.63;11.10;;;3.70;99.90;;;;;;4952265;28;20213;-71
2021/01/18 09:47:30;;;;;;;19.75;10.45;;;3.70;99.90;;;;;;4947630;28;20210;-73
2021/01/18 09:50:09;;;;;;;28.23;11.57;;;3.70;99.90;;;;;;4937594;29;20210;-72
2021/01/18 09:52:38;;;;;;;19.67;9.00;;;3.70;99.90;;;;;;4938085;29;20210;-73
2021/01/18 09:55:10;;;;;;;18.48;9.18;;;3.70;99.90;;;;;;4936857;29;20226;-73
2021/01/18 09:57:38;;;;;;;16.17;8.95;;;3.80;99.90;;;;;;4940049;29;20209;-72
2021/01/18 10:00:06;;;;;;;20.10;9.57;;;3.80;99.90;;;;;;4947215;28;20221;-73
2021/01/18 10:02:36;;;;;;;21.83;10.73;;;3.70;99.90;;;;;;4951934;29;20212;-72
2021/01/18 10:05:06;;;;;;;14.68;7.70;;;3.80;99.90;;;;;;4944922;28;20205;-72
2021/01/18 10:07:39;;;;;;;13.02;8.60;;;3.70;99.90;;;;;;4948238;29;20323;-73
2021/01/18 10:10:07;;;;;;;13.75;7.57;;;3.80;99.90;;;;;;4951052;29;20210;-72
2021/01/18 10:12:37;;;;;;;17.17;8.00;;;3.80;99.90;;;;;;4940672;28;20206;-74
2021/01/18 10:15:05;;;;;;;17.90;9.50;;;3.80;99.90;;;;;;4947044;28;20230;-72
2021/01/18 10:17:32;;;;;;;20.77;9.25;;;3.70;99.90;;;;;;4936250;29;20589;-72
2021/01/18 10:20:07;;;;;;;19.52;9.45;;;3.70;99.90;;;;;;4951156;29;20646;-73
2021/01/18 10:22:37;;;;;;;20.20;10.00;;;3.80;99.90;;;;;;4934872;29;20213;-72
2021/01/18 10:25:09;;;;;;;16.77;9.65;;;3.80;99.90;;;;;;4937739;29;20206;-74
2021/01/18 10:27:35;;;;;;;17.95;8.10;;;3.80;99.90;;;;;;4938131;29;20368;-73
2021/01/18 10:30:10;;;;;;;20.42;10.50;;;3.80;99.90;;;;;;4937597;28;20210;-73
2021/01/18 10:32:41;;;;;;;18.27;8.40;;;3.80;99.90;;;;;;4940586;29;20208;-73
2021/01/18 10:35:19;;;;;;;20.52;8.98;;;3.90;99.90;;;;;;4948177;29;20225;-73
2021/01/18 10:37:46;;;;;;;17.02;9.20;;;3.90;99.90;;;;;;4953254;28;20201;-72
2021/01/18 10:40:13;;;;;;;17.23;8.68;;;3.90;99.90;;;;;;4935842;29;20213;-72
2021/01/18 10:42:48;;;;;;;19.45;10.00;;;3.90;99.90;;;;;;4947421;29;20201;-73
2021/01/18 10:45:16;;;;;;;19.08;9.80;;;3.90;99.90;;;;;;4955612;28;20252;-73
2021/01/18 10:47:54;;;;;;;21.98;9.98;;;3.90;99.90;;;;;;4950029;28;20619;-71
2021/01/18 10:50:24;;;;;;;25.48;11.13;;;3.90;99.90;;;;;;4936679;29;20296;-73
2021/01/18 10:53:00;;;;;;;25.30;9.70;;;3.90;99.90;;;;;;4944243;29;20264;-73
2021/01/18 10:55:27;;;;;;;20.42;10.02;;;3.90;99.90;;;;;;4935788;29;20305;-73
2021/01/18 10:57:53;;;;;;;19.90;9.25;;;3.90;99.90;;;;;;4944876;29;20634;-72
2021/01/18 11:00:21;;;;;;;22.15;10.02;;;3.90;99.90;;;;;;4936773;29;20233;-72
2021/01/18 11:02:57;;;;;;;13.63;9.10;;;3.90;99.90;;;;;;4941598;29;20205;-72
2021/01/18 11:05:32;;;;;;;15.57;9.18;;;3.90;99.90;;;;;;4955593;28;20201;-73
2021/01/18 11:08:00;;;;;;;14.43;10.32;;;4.00;99.90;;;;;;4951021;28;20284;-72
2021/01/18 11:10:27;;;;;;;18.67;9.15;;;4.00;99.90;;;;;;4945336;28;20277;-71
2021/01/18 11:12:59;;;;;;;10.35;7.88;;;4.00;99.90;;;;;;4939968;29;20225;-72
2021/01/18 11:15:31;;;;;;;29.33;15.52;;;4.00;99.90;;;;;;4942749;28;20332;-72
2021/01/18 11:17:57;;;;;;;22.90;13.02;;;4.00;99.90;;;;;;4940801;29;20208;-72
2021/01/18 11:20:24;;;;;;;20.55;12.07;;;4.10;99.90;;;;;;4943011;29;20278;-72
2021/01/18 11:22:50;;;;;;;16.38;10.10;;;4.00;99.90;;;;;;4945188;29;20656;-72
2021/01/18 11:25:18;;;;;;;12.45;7.43;;;4.10;99.90;;;;;;4939206;29;20218;-73
2021/01/18 11:27:44;;;;;;;15.38;10.57;;;4.10;99.90;;;;;;4937008;29;20214;-72
2021/01/18 11:30:11;;;;;;;18.35;11.70;;;4.10;99.90;;;;;;4935971;29;20214;-71
2021/01/18 11:32:38;;;;;;;15.30;10.85;;;4.10;99.90;;;;;;4938335;29;20214;-72
2021/01/18 11:35:05;;;;;;;16.77;8.85;;;4.20;99.90;;;;;;4936186;29;20241;-72
2021/01/18 11:37:34;;;;;;;12.65;8.35;;;4.20;99.90;;;;;;4938856;29;20216;-72
2021/01/18 11:40:01;;;;;;;18.95;9.88;;;4.20;99.90;;;;;;4935908;29;20207;-72
2021/01/18 11:42:27;;;;;;;17.42;9.15;;;4.30;99.90;;;;;;4943972;29;20218;-73
2021/01/18 11:44:54;;;;;;;12.23;8.48;;;4.20;99.90;;;;;;4937895;29;20581;-71
2021/01/18 11:47:20;;;;;;;14.35;9.48;;;4.30;99.90;;;;;;4946428;29;20209;-72
2021/01/18 11:49:46;;;;;;;16.20;10.43;;;4.30;99.90;;;;;;4940868;29;20662;-72
2021/01/18 11:52:12;;;;;;;19.50;10.10;;;4.30;99.90;;;;;;4943729;28;20234;-72
2021/01/18 11:54:38;;;;;;;41.03;14.52;;;4.30;99.90;;;;;;4936167;29;20368;-71
2021/01/18 11:57:05;;;;;;;20.88;11.05;;;4.30;99.90;;;;;;4942685;29;20212;-71
2021/01/18 11:59:32;;;;;;;15.75;10.70;;;4.30;99.90;;;;;;4936768;28;20224;-71
2021/01/18 12:01:58;;;;;;;25.27;13.85;;;4.30;99.90;;;;;;4936434;29;20798;-71
2021/01/18 12:04:24;;;;;;;25.95;13.40;;;4.40;99.90;;;;;;4935302;29;20582;-71
2021/01/18 12:06:51;;;;;;;31.92;14.70;;;4.40;99.90;;;;;;4936778;29;20210;-71
2021/01/18 12:09:17;;;;;;;24.05;14.13;;;4.50;99.90;;;;;;4935044;29;20233;-72
2021/01/18 12:11:44;;;;;;;22.17;13.55;;;4.50;99.90;;;;;;4943319;29;20225;-70
2021/01/18 12:14:10;;;;;;;24.00;11.45;;;4.50;99.90;;;;;;4935262;28;20233;-72
2021/01/18 12:16:37;;;;;;;16.55;11.27;;;4.50;99.90;;;;;;4945503;29;20209;-72
2021/01/18 12:19:04;;;;;;;19.63;11.45;;;4.50;99.90;;;;;;4951956;28;20268;-71
2021/01/18 12:21:30;;;;;;;14.32;9.85;;;4.50;99.90;;;;;;4945046;29;20309;-72
2021/01/18 12:23:56;;;;;;;18.42;11.25;;;4.50;99.90;;;;;;4953609;28;20223;-71
2021/01/18 12:26:22;;;;;;;17.60;12.13;;;4.50;99.90;;;;;;4951118;28;20204;-72
2021/01/18 12:28:49;;;;;;;23.60;12.23;;;4.50;99.90;;;;;;4941954;28;20202;-72
2021/01/18 12:31:17;;;;;;;22.05;13.05;;;4.50;99.90;;;;;;4949040;29;20229;-72
2021/01/18 12:33:44;;;;;;;22.30;13.70;;;4.50;99.90;;;;;;4953742;28;20205;-72
2021/01/18 12:36:11;;;;;;;17.60;10.95;;;4.50;99.90;;;;;;4940671;28;20225;-70
2021/01/18 12:38:39;;;;;;;18.80;11.52;;;4.50;99.90;;;;;;4938820;29;20221;-71
2021/01/18 12:41:05;;;;;;;26.33;13.85;;;4.50;99.90;;;;;;4939062;29;20225;-71
2021/01/18 12:43:32;;;;;;;19.23;11.88;;;4.50;99.90;;;;;;4938789;29;20214;-71
2021/01/18 12:46:00;;;;;;;16.98;10.80;;;4.50;99.90;;;;;;4951064;28;20227;-70
2021/01/18 12:48:26;;;;;;;21.25;13.30;;;4.50;99.90;;;;;;4955574;28;20194;-70
2021/01/18 12:50:53;;;;;;;30.67;16.33;;;4.50;99.90;;;;;;4948637;29;20236;-71
2021/01/18 12:56:00;;;;;;;28.95;19.38;;;4.60;99.90;;;;;;4943379;29;20225;-70
2021/01/18 12:58:26;;;;;;;28.15;18.40;;;4.60;99.90;;;;;;4940171;29;20209;-70
2021/01/18 13:00:52;;;;;;;26.63;14.32;;;4.60;99.90;;;;;;4945425;28;20241;-70
2021/01/18 13:03:18;;;;;;;28.55;15.05;;;4.60;99.90;;;;;;4946348;29;20795;-69
2021/01/18 13:05:44;;;;;;;20.38;13.05;;;4.60;99.90;;;;;;4941029;28;20206;-71
2021/01/18 13:08:12;;;;;;;21.95;12.15;;;4.60;99.90;;;;;;4939029;29;20206;-71
2021/01/18 13:10:38;;;;;;;25.98;13.30;;;4.60;99.90;;;;;;4949463;29;20275;-70
2021/01/18 13:13:04;;;;;;;24.13;12.88;;;4.70;99.90;;;;;;4953513;28;20205;-70
2021/01/18 13:15:31;;;;;;;19.48;12.38;;;4.70;99.90;;;;;;4950188;29;20299;-70
2021/01/18 13:17:57;;;;;;;23.02;12.90;;;4.70;99.90;;;;;;4946795;28;20206;-71
2021/01/18 13:20:23;;;;;;;30.10;12.73;;;4.70;99.90;;;;;;4938411;28;20273;-69
2021/01/18 13:22:51;;;;;;;21.25;11.77;;;4.70;99.90;;;;;;4951182;29;20201;-71
2021/01/18 13:25:18;;;;;;;18.77;12.07;;;4.70;99.90;;;;;;4940082;29;20329;-71
2021/01/18 13:27:44;;;;;;;20.02;13.82;;;4.70;99.90;;;;;;4949628;29;20284;-72
2021/01/18 13:30:11;;;;;;;20.45;12.82;;;4.70;99.90;;;;;;4939324;29;20261;-71
2021/01/18 13:32:37;;;;;;;19.85;12.55;;;4.70;99.90;;;;;;4937431;29;20213;-72
2021/01/18 13:35:05;;;;;;;21.52;12.32;;;4.70;99.90;;;;;;4937240;29;20556;-71
2021/01/18 13:37:31;;;;;;;23.58;13.38;;;4.70;99.90;;;;;;4937217;28;20607;-71
2021/01/18 13:39:57;;;;;;;22.02;14.30;;;4.70;99.90;;;;;;4937350;29;20205;-71
2021/01/18 13:42:24;;;;;;;25.42;15.88;;;4.70;99.90;;;;;;4936635;29;20256;-71
2021/01/18 13:44:50;;;;;;;23.20;12.55;;;4.70;99.90;;;;;;4937825;29;20206;-70
2021/01/18 13:47:17;;;;;;;25.08;13.57;;;4.70;99.90;;;;;;4937585;29;20210;-71
2021/01/18 13:49:43;;;;;;;23.90;13.25;;;4.70;99.90;;;;;;4947868;29;20638;-70
2021/01/18 13:52:09;;;;;;;27.95;15.25;;;4.80;99.90;;;;;;4937478;28;20230;-70
2021/01/18 13:54:35;;;;;;;32.50;15.00;;;4.80;99.90;;;;;;4938237;29;20222;-71
2021/01/18 13:57:02;;;;;;;25.70;12.43;;;4.80;99.90;;;;;;4936277;29;20265;-72
2021/01/18 13:59:29;;;;;;;23.13;12.07;;;4.80;99.90;;;;;;4948549;29;20544;-70
2021/01/18 14:01:59;;;;;;;25.25;13.93;;;4.80;99.90;;;;;;4955116;28;20233;-71
2021/01/18 14:04:25;;;;;;;23.00;13.30;;;4.80;99.90;;;;;;4948671;28;20583;-70
2021/01/18 14:06:51;;;;;;;23.77;15.40;;;4.80;99.90;;;;;;4956685;28;20209;-70
2021/01/18 14:09:18;;;;;;;25.77;13.75;;;4.80;99.90;;;;;;4949130;29;20205;-71
2021/01/18 14:11:45;;;;;;;21.92;12.90;;;4.80;99.90;;;;;;4942085;28;20230;-70
2021/01/18 14:14:12;;;;;;;25.38;12.90;;;4.80;99.90;;;;;;4948915;28;20210;-70
2021/01/18 14:16:40;;;;;;;25.85;14.23;;;4.90;99.90;;;;;;4948579;28;20208;-71
2021/01/18 14:19:07;;;;;;;24.90;14.10;;;4.80;99.90;;;;;;4952281;28;20511;-71
2021/01/18 14:21:33;;;;;;;19.45;13.48;;;4.80;99.90;;;;;;4948114;28;20296;-71
2021/01/18 14:24:02;;;;;;;22.60;12.95;;;4.80;99.90;;;;;;4939348;29;20229;-71
2021/01/18 14:26:31;;;;;;;21.33;13.63;;;4.80;99.90;;;;;;4951826;28;20249;-71
2021/01/18 14:28:58;;;;;;;22.02;13.32;;;4.80;99.90;;;;;;4937633;29;20209;-71
2021/01/18 14:31:26;;;;;;;19.38;13.95;;;4.80;99.90;;;;;;4937915;29;20225;-71
2021/01/18 14:33:54;;;;;;;17.52;10.57;;;4.80;99.90;;;;;;4937754;29;20276;-71
2021/01/18 14:36:23;;;;;;;25.13;12.93;;;4.80;99.90;;;;;;4937942;29;20356;-71
2021/01/18 14:38:50;;;;;;;21.02;12.57;;;4.80;99.90;;;;;;4953334;29;20214;-71
2021/01/18 14:41:17;;;;;;;22.38;11.10;;;4.80;99.90;;;;;;4945690;28;20304;-71
2021/01/18 14:43:43;;;;;;;19.08;12.23;;;4.80;99.90;;;;;;4940642;28;20202;-71
2021/01/18 14:46:09;;;;;;;18.55;11.48;;;4.80;99.90;;;;;;4938157;29;20309;-71
2021/01/18 14:48:37;;;;;;;20.75;11.20;;;4.80;99.90;;;;;;4950640;29;20289;-72
2021/01/18 14:51:05;;;;;;;17.75;10.55;;;4.80;99.90;;;;;;4954451;28;20229;-70
2021/01/18 14:53:31;;;;;;;23.95;11.25;;;4.70;99.90;;;;;;4949081;29;20201;-71
2021/01/18 14:55:57;;;;;;;17.42;11.30;;;4.70;99.90;;;;;;4955514;28;20281;-71
2021/01/18 14:58:23;;;;;;;19.85;10.75;;;4.70;99.90;;;;;;4945147;29;20947;-71
2021/01/18 15:00:50;;;;;;;20.35;10.65;;;4.70;99.90;;;;;;4937802;29;20244;-71
2021/01/18 15:03:16;;;;;;;19.05;10.60;;;4.70;99.90;;;;;;4950764;29;20226;-71
2021/01/18 15:05:43;;;;;;;16.83;9.38;;;4.70;99.90;;;;;;4937504;29;20214;-71
2021/01/18 15:08:11;;;;;;;16.30;10.27;;;4.70;99.90;;;;;;4953693;29;20228;-70
2021/01/18 15:10:37;;;;;;;12.23;8.88;;;4.70;99.90;;;;;;4950941;28;20225;-70
2021/01/18 15:13:03;;;;;;;15.25;11.18;;;4.70;99.90;;;;;;4941008;28;20260;-70
2021/01/18 15:15:29;;;;;;;11.40;8.35;;;4.60;99.90;;;;;;4946259;29;20759;-71
2021/01/18 15:17:56;;;;;;;23.33;12.13;;;4.70;99.90;;;;;;4940045;29;20209;-71
2021/01/18 15:20:22;;;;;;;17.40;11.73;;;4.60;99.90;;;;;;4955754;28;20632;-71
2021/01/18 15:22:48;;;;;;;18.27;11.55;;;4.60;99.90;;;;;;4953211;28;20619;-71
2021/01/18 15:25:15;;;;;;;13.30;9.25;;;4.60;99.90;;;;;;4953759;28;20209;-71
2021/01/18 15:27:41;;;;;;;15.50;8.98;;;4.60;99.90;;;;;;4949353;28;20208;-71
2021/01/18 15:30:09;;;;;;;15.95;10.70;;;4.60;99.90;;;;;;4954562;28;20305;-72
2021/01/18 15:32:35;;;;;;;15.00;10.88;;;4.60;99.90;;;;;;4945094;28;20220;-71
2021/01/18 15:35:02;;;;;;;13.85;9.13;;;4.60;99.90;;;;;;4935922;29;20233;-71
2021/01/18 15:37:28;;;;;;;15.77;10.10;;;4.60;99.90;;;;;;4941268;29;20213;-70
2021/01/18 15:39:54;;;;;;;14.30;9.65;;;4.50;99.90;;;;;;4936370;29;20217;-71
2021/01/18 15:42:21;;;;;;;13.70;10.45;;;4.50;99.90;;;;;;4938903;28;20237;-70
2021/01/18 15:44:48;;;;;;;13.18;10.85;;;4.50;99.90;;;;;;4949452;29;20206;-70
2021/01/18 15:47:14;;;;;;;11.25;8.82;;;4.50;99.90;;;;;;4949558;28;20566;-71
2021/01/18 15:49:40;;;;;;;10.27;9.10;;;4.50;99.90;;;;;;4951781;28;20767;-69
2021/01/18 15:52:06;;;;;;;15.05;9.75;;;4.50;99.90;;;;;;4943868;28;20240;-71
2021/01/18 15:54:32;;;;;;;12.25;8.93;;;4.40;99.90;;;;;;4935964;29;20220;-71
2021/01/18 15:56:59;;;;;;;10.20;7.53;;;4.40;99.90;;;;;;4942751;28;20612;-70
2021/01/18 15:59:26;;;;;;;12.35;9.40;;;4.40;99.90;;;;;;4942452;29;20206;-70
2021/01/18 16:01:52;;;;;;;17.90;11.07;;;4.40;99.90;;;;;;4953035;29;20300;-70
2021/01/18 16:04:18;;;;;;;12.10;9.48;;;4.40;99.90;;;;;;4950715;28;20213;-70
2021/01/18 16:06:45;;;;;;;13.57;9.85;;;4.40;99.90;;;;;;4934494;28;20229;-72
2021/01/18 16:09:13;;;;;;;10.05;9.00;;;4.40;99.90;;;;;;4949367;29;20210;-72
2021/01/18 16:11:39;;;;;;;10.45;9.27;;;4.30;99.90;;;;;;4947584;28;20225;-71
2021/01/18 16:14:06;;;;;;;9.23;8.20;;;4.30;99.90;;;;;;4948358;29;20276;-70
2021/01/18 16:16:33;;;;;;;14.15;9.50;;;4.30;99.90;;;;;;4942281;28;20220;-70
2021/01/18 16:18:59;;;;;;;11.70;8.65;;;4.30;99.90;;;;;;4939774;28;20283;-70
2021/01/18 16:21:32;;;;;;;13.07;9.20;;;4.30;99.90;;;;;;4938832;28;20230;-71
2021/01/18 16:23:58;;;;;;;12.27;9.13;;;4.30;99.90;;;;;;4934585;29;20194;-72
2021/01/18 16:26:24;;;;;;;14.32;10.20;;;4.30;99.90;;;;;;4944509;29;20256;-72
2021/01/18 16:28:50;;;;;;;18.30;11.88;;;4.30;99.90;;;;;;4940847;28;20257;-72
2021/01/18 16:31:17;;;;;;;14.18;10.13;;;4.30;99.90;;;;;;4943846;28;20225;-72
2021/01/18 16:33:45;;;;;;;13.05;10.13;;;4.30;99.90;;;;;;4948660;29;20205;-71
2021/01/18 16:36:11;;;;;;;14.93;10.02;;;4.30;99.90;;;;;;4950553;28;20221;-70
2021/01/18 16:38:37;;;;;;;13.15;10.10;;;4.30;99.90;;;;;;4954277;28;20209;-71
2021/01/18 16:41:04;;;;;;;12.65;10.02;;;4.30;99.90;;;;;;4954069;28;20225;-71
2021/01/18 16:43:30;;;;;;;14.35;11.02;;;4.30;99.90;;;;;;4948091;28;20673;-71
2021/01/18 16:45:56;;;;;;;12.98;10.90;;;4.30;99.90;;;;;;4936088;29;20202;-70
2021/01/18 16:48:22;;;;;;;18.70;12.07;;;4.30;99.90;;;;;;4940086;29;20206;-71
2021/01/18 16:50:49;;;;;;;16.05;11.90;;;4.30;99.90;;;;;;4945645;29;20264;-70
2021/01/18 16:53:16;;;;;;;16.60;11.70;;;4.30;99.90;;;;;;4953189;28;20209;-71
2021/01/18 16:55:42;;;;;;;14.55;11.57;;;4.30;99.90;;;;;;4948106;28;20321;-70
2021/01/18 16:58:09;;;;;;;16.33;11.65;;;4.30;99.90;;;;;;4941849;28;20213;-70
2021/01/18 17:00:36;;;;;;;16.85;11.07;;;4.30;99.90;;;;;;4939604;29;20681;-70
2021/01/18 17:03:02;;;;;;;20.25;12.45;;;4.40;99.90;;;;;;4953025;29;20201;-70
2021/01/18 17:05:28;;;;;;;18.60;11.98;;;4.30;99.90;;;;;;4951952;28;20221;-70
2021/01/18 17:07:55;;;;;;;18.35;14.10;;;4.30;99.90;;;;;;4944160;28;20217;-70
2021/01/18 17:10:21;;;;;;;18.27;11.15;;;4.40;99.90;;;;;;4934867;29;20232;-70
2021/01/18 17:12:47;;;;;;;18.10;12.95;;;4.40;99.90;;;;;;4944818;28;20245;-69
2021/01/18 17:15:14;;;;;;;35.13;17.15;;;4.40;99.90;;;;;;4934820;29;20237;-71
2021/01/18 17:17:40;;;;;;;29.83;16.20;;;4.40;99.90;;;;;;4950516;28;20197;-70
2021/01/18 17:20:07;;;;;;;25.50;15.20;;;4.50;99.90;;;;;;4948632;28;20577;-71
2021/01/18 17:22:33;;;;;;;25.02;13.95;;;4.40;99.90;;;;;;4941229;29;20232;-70
2021/01/18 17:25:00;;;;;;;36.08;17.58;;;4.40;99.90;;;;;;4956613;28;20201;-70
2021/01/18 17:27:26;;;;;;;37.70;23.02;;;4.50;99.90;;;;;;4942996;28;20205;-70
2021/01/18 17:29:52;;;;;;;29.92;17.60;;;4.50;99.90;;;;;;4956518;28;20220;-70
2021/01/18 17:32:18;;;;;;;33.15;18.25;;;4.50;99.90;;;;;;4951552;28;20304;-70
2021/01/18 17:34:44;;;;;;;31.48;18.17;;;4.50;99.90;;;;;;4957426;28;20209;-69
2021/01/18 17:37:12;;;;;;;40.53;19.63;;;4.50;99.90;;;;;;4950146;28;20213;-69
2021/01/18 17:39:39;;;;;;;29.60;17.35;;;4.50;99.90;;;;;;4954221;28;20566;-70
2021/01/18 17:42:06;;;;;;;31.80;18.90;;;4.50;99.90;;;;;;4943246;28;20305;-71
2021/01/18 17:44:32;;;;;;;44.17;22.20;;;4.60;99.90;;;;;;4952523;29;20633;-71
2021/01/18 17:47:03;;;;;;;35.45;19.00;;;4.60;99.90;;;;;;4956419;29;20208;-71
2021/01/18 17:49:29;;;;;;;27.08;15.73;;;4.60;99.90;;;;;;4942897;28;20218;-70
2021/01/18 17:51:56;;;;;;;34.63;17.48;;;4.60;99.90;;;;;;4936678;29;20691;-68